PRINT OUT SECTION, show »

METAR EPBY 160630Z 25018KT 9999 BKN017 06/03 Q0996=

METAR EPGD 160630Z 24012KT 8000 -SHRA SCT003 SCT006CB BKN008 03/03
Q0992 RESHRA =

METAR EPKK 160630Z 29015KT 9999 FEW033 08/03 Q1002 =

METAR EPKT 160630Z 29009KT 230V330 CAVOK 05/M00 Q1002 =

METAR EPLB 160630Z 28017KT 9999 FEW012 BKN016 BKN026 11/08 Q0999 =

METAR EPLL 160630Z 25021G31KT 9999 SCT027 BKN033 06/01 Q1000 =

METAR EPML 160630Z AUTO 24015KT 9999 SCT032/// BKN100/// 11/06 Q////=

METAR EPMO 160630Z 25021KT 9999 BKN016CB 06/04 Q0998 =

METAR EPPO 160630Z 23011G21KT 9999 FEW020 BKN043 06/02 Q0999 =

METAR EPRA 160630Z 29019G31KT 9999 SCT019 07/04 Q1000=

METAR EPRZ 160630Z 24009KT 9999 FEW046 11/08 Q1001 =

METAR EPSC 160630Z 24012KT 210V270 9999 BKN014 06/03 Q0995 =

METAR EPSY 160630Z 24015KT 210V270 9999 -RA FEW005 BKN012 OVC039
05/04 Q0994=

METAR EPWA 160630Z 26019G29KT 9999 BKN025 07/02 Q0998 NOSIG=

METAR EPWR 160630Z 25011G21KT 210V280 CAVOK 08/M00 Q1002 =

METAR EPZG 160630Z 22015KT 190V260 9999 BKN024 06/03 Q1000 =
 METAR EPPO
Lokalizacja:EPPO Poznań Ławica
Czas:06:30 UTC
Średni kierunek wiatru:230 °
Średnia prędkość wiatru:11 węzłów
Prędkość wiatru w porywach:21 węzłów
Widzialność:10 km i więcej
Pierwsza warstwa chmur:1/8 do 2/8, wysokość podstawy 2000 FT
Druga warstwa chmur:5/8 do 7/8, wysokość podstawy 4300 FT
Temperatura powietrza:6 °C
Temperatura punktu rosy:2 °C
Ciśnienie QNH:999 hPa